sensor_id;sensor_type;location;lat;lon;timestamp;temperature;humidity
35240;DHT22;21376;50.954;4.716;2024-01-30T00:01:44;9.40;99.90
35240;DHT22;21376;50.954;4.716;2024-01-30T00:04:13;9.50;99.90
35240;DHT22;21376;50.954;4.716;2024-01-30T00:06:39;9.60;99.90
35240;DHT22;21376;50.954;4.716;2024-01-30T00:09:08;9.60;99.90
35240;DHT22;21376;50.954;4.716;2024-01-30T00:16:28;9.60;99.90
35240;DHT22;21376;50.954;4.716;2024-01-30T00:18:54;9.50;99.90
35240;DHT22;21376;50.954;4.716;2024-01-30T00:21:20;9.60;99.90
35240;DHT22;21376;50.954;4.716;2024-01-30T00:23:49;9.60;99.90
35240;DHT22;21376;50.954;4.716;2024-01-30T00:26:32;9.60;99.90
35240;DHT22;21376;50.954;4.716;2024-01-30T00:29:01;9.60;99.90
35240;DHT22;21376;50.954;4.716;2024-01-30T00:31:28;9.70;99.90
35240;DHT22;21376;50.954;4.716;2024-01-30T00:34:07;9.60;99.90
35240;DHT22;21376;50.954;4.716;2024-01-30T00:36:33;9.70;99.90
35240;DHT22;21376;50.954;4.716;2024-01-30T00:39:05;9.60;99.90
35240;DHT22;21376;50.954;4.716;2024-01-30T00:41:35;9.60;99.90
35240;DHT22;21376;50.954;4.716;2024-01-30T00:44:04;9.60;99.90
35240;DHT22;21376;50.954;4.716;2024-01-30T00:46:33;9.80;99.90
35240;DHT22;21376;50.954;4.716;2024-01-30T00:48:59;9.80;99.90
35240;DHT22;21376;50.954;4.716;2024-01-30T00:51:26;9.80;99.90
35240;DHT22;21376;50.954;4.716;2024-01-30T00:53:55;9.60;99.90
35240;DHT22;21376;50.954;4.716;2024-01-30T00:56:24;9.80;99.90
35240;DHT22;21376;50.954;4.716;2024-01-30T00:58:53;9.80;99.90
35240;DHT22;21376;50.954;4.716;2024-01-30T01:04:43;9.70;99.90
35240;DHT22;21376;50.954;4.716;2024-01-30T01:07:18;9.90;99.90
35240;DHT22;21376;50.954;4.716;2024-01-30T01:10:01;10.00;99.90
35240;DHT22;21376;50.954;4.716;2024-01-30T01:12:30;10.20;99.90
35240;DHT22;21376;50.954;4.716;2024-01-30T01:14:56;10.20;99.90
35240;DHT22;21376;50.954;4.716;2024-01-30T01:17:25;10.30;99.90
35240;DHT22;21376;50.954;4.716;2024-01-30T01:20:07;10.40;99.90
35240;DHT22;21376;50.954;4.716;2024-01-30T01:22:37;10.30;99.90
35240;DHT22;21376;50.954;4.716;2024-01-30T01:25:10;10.20;99.90
35240;DHT22;21376;50.954;4.716;2024-01-30T01:27:44;10.10;99.90
35240;DHT22;21376;50.954;4.716;2024-01-30T01:30:24;10.20;99.90
35240;DHT22;21376;50.954;4.716;2024-01-30T01:32:54;10.30;99.90
35240;DHT22;21376;50.954;4.716;2024-01-30T01:35:32;10.30;99.90
35240;DHT22;21376;50.954;4.716;2024-01-30T01:38:04;10.50;99.90
35240;DHT22;21376;50.954;4.716;2024-01-30T01:40:33;10.40;99.90
35240;DHT22;21376;50.954;4.716;2024-01-30T01:43:20;10.40;99.90
35240;DHT22;21376;50.954;4.716;2024-01-30T01:45:52;10.50;99.90
35240;DHT22;21376;50.954;4.716;2024-01-30T01:48:21;10.40;99.90
35240;DHT22;21376;50.954;4.716;2024-01-30T01:50:55;10.40;99.90
35240;DHT22;21376;50.954;4.716;2024-01-30T01:53:24;10.50;99.90
35240;DHT22;21376;50.954;4.716;2024-01-30T01:55:52;10.50;99.90
35240;DHT22;21376;50.954;4.716;2024-01-30T01:58:21;10.50;99.90
35240;DHT22;21376;50.954;4.716;2024-01-30T02:00:52;10.40;99.90
35240;DHT22;21376;50.954;4.716;2024-01-30T02:03:21;10.30;99.90
35240;DHT22;21376;50.954;4.716;2024-01-30T02:05:50;10.30;99.90
35240;DHT22;21376;50.954;4.716;2024-01-30T02:08:20;10.20;99.90
35240;DHT22;21376;50.954;4.716;2024-01-30T02:10:52;10.20;99.90
35240;DHT22;21376;50.954;4.716;2024-01-30T02:13:21;10.30;99.90
35240;DHT22;21376;50.954;4.716;2024-01-30T02:15:53;10.30;99.90
35240;DHT22;21376;50.954;4.716;2024-01-30T02:18:25;10.40;99.90
35240;DHT22;21376;50.954;4.716;2024-01-30T02:21:06;10.40;99.90
35240;DHT22;21376;50.954;4.716;2024-01-30T02:23:35;10.40;99.90
35240;DHT22;21376;50.954;4.716;2024-01-30T02:29:05;10.50;99.90
35240;DHT22;21376;50.954;4.716;2024-01-30T02:31:34;10.30;99.90
35240;DHT22;21376;50.954;4.716;2024-01-30T02:34:32;10.30;99.90
35240;DHT22;21376;50.954;4.716;2024-01-30T02:37:00;10.30;99.90
35240;DHT22;21376;50.954;4.716;2024-01-30T02:39:29;10.10;99.90
35240;DHT22;21376;50.954;4.716;2024-01-30T02:41:58;10.10;99.90
35240;DHT22;21376;50.954;4.716;2024-01-30T02:44:24;10.10;99.90
35240;DHT22;21376;50.954;4.716;2024-01-30T02:46:53;10.00;99.90
35240;DHT22;21376;50.954;4.716;2024-01-30T02:49:23;10.00;99.90
35240;DHT22;21376;50.954;4.716;2024-01-30T02:51:52;10.10;99.90
35240;DHT22;21376;50.954;4.716;2024-01-30T02:54:22;10.10;99.90
35240;DHT22;21376;50.954;4.716;2024-01-30T02:56:51;10.00;99.90
35240;DHT22;21376;50.954;4.716;2024-01-30T03:02:24;10.10;99.90
35240;DHT22;21376;50.954;4.716;2024-01-30T03:04:53;10.00;99.90
35240;DHT22;21376;50.954;4.716;2024-01-30T03:07:22;10.10;99.90
35240;DHT22;21376;50.954;4.716;2024-01-30T03:09:51;10.10;99.90
35240;DHT22;21376;50.954;4.716;2024-01-30T03:12:21;10.00;99.90
35240;DHT22;21376;50.954;4.716;2024-01-30T03:14:50;10.20;99.90
35240;DHT22;21376;50.954;4.716;2024-01-30T03:17:17;10.20;99.90
35240;DHT22;21376;50.954;4.716;2024-01-30T03:19:46;10.30;99.90
35240;DHT22;21376;50.954;4.716;2024-01-30T03:22:15;10.40;99.90
35240;DHT22;21376;50.954;4.716;2024-01-30T03:24:44;10.40;99.90
35240;DHT22;21376;50.954;4.716;2024-01-30T03:27:11;10.30;99.90
35240;DHT22;21376;50.954;4.716;2024-01-30T03:29:40;10.30;99.90
35240;DHT22;21376;50.954;4.716;2024-01-30T03:32:09;10.30;99.90
35240;DHT22;21376;50.954;4.716;2024-01-30T03:38:19;10.30;99.90
35240;DHT22;21376;50.954;4.716;2024-01-30T03:40:48;10.40;99.90
35240;DHT22;21376;50.954;4.716;2024-01-30T03:43:16;10.40;99.90
35240;DHT22;21376;50.954;4.716;2024-01-30T03:45:45;10.50;99.90
35240;DHT22;21376;50.954;4.716;2024-01-30T03:48:14;10.40;99.90
35240;DHT22;21376;50.954;4.716;2024-01-30T03:50:43;10.40;99.90
35240;DHT22;21376;50.954;4.716;2024-01-30T03:53:20;10.50;99.90
35240;DHT22;21376;50.954;4.716;2024-01-30T03:55:46;10.40;99.90
35240;DHT22;21376;50.954;4.716;2024-01-30T03:58:12;10.40;99.90
35240;DHT22;21376;50.954;4.716;2024-01-30T04:00:40;10.40;99.90
35240;DHT22;21376;50.954;4.716;2024-01-30T04:03:09;10.40;99.90
35240;DHT22;21376;50.954;4.716;2024-01-30T04:05:57;10.50;99.90
35240;DHT22;21376;50.954;4.716;2024-01-30T04:08:51;10.50;99.90
35240;DHT22;21376;50.954;4.716;2024-01-30T04:11:40;10.50;99.90
35240;DHT22;21376;50.954;4.716;2024-01-30T04:14:09;10.40;99.90
35240;DHT22;21376;50.954;4.716;2024-01-30T04:16:35;10.30;99.90
35240;DHT22;21376;50.954;4.716;2024-01-30T04:19:04;10.40;99.90
35240;DHT22;21376;50.954;4.716;2024-01-30T04:21:33;10.40;99.90
35240;DHT22;21376;50.954;4.716;2024-01-30T04:24:02;10.40;99.90
35240;DHT22;21376;50.954;4.716;2024-01-30T04:26:30;10.40;99.90
35240;DHT22;21376;50.954;4.716;2024-01-30T04:28:59;10.20;99.90
35240;DHT22;21376;50.954;4.716;2024-01-30T04:31:28;10.50;99.90
35240;DHT22;21376;50.954;4.716;2024-01-30T04:37:12;10.60;99.90
35240;DHT22;21376;50.954;4.716;2024-01-30T04:39:41;10.50;99.90
35240;DHT22;21376;50.954;4.716;2024-01-30T04:42:08;10.40;99.90
35240;DHT22;21376;50.954;4.716;2024-01-30T04:44:33;10.60;99.90
35240;DHT22;21376;50.954;4.716;2024-01-30T04:46:59;10.60;99.90
35240;DHT22;21376;50.954;4.716;2024-01-30T04:49:30;10.60;99.90
35240;DHT22;21376;50.954;4.716;2024-01-30T04:52:15;10.60;99.90
35240;DHT22;21376;50.954;4.716;2024-01-30T04:54:44;10.40;99.90
35240;DHT22;21376;50.954;4.716;2024-01-30T04:57:10;10.50;99.90
35240;DHT22;21376;50.954;4.716;2024-01-30T04:59:37;10.40;99.90
35240;DHT22;21376;50.954;4.716;2024-01-30T05:02:16;10.60;99.90
35240;DHT22;21376;50.954;4.716;2024-01-30T05:05:07;10.70;99.90
35240;DHT22;21376;50.954;4.716;2024-01-30T05:07:38;10.60;99.90
35240;DHT22;21376;50.954;4.716;2024-01-30T05:10:07;10.70;99.90
35240;DHT22;21376;50.954;4.716;2024-01-30T05:15:29;10.70;99.90
35240;DHT22;21376;50.954;4.716;2024-01-30T05:17:56;10.80;99.90
35240;DHT22;21376;50.954;4.716;2024-01-30T05:20:25;10.70;99.90
35240;DHT22;21376;50.954;4.716;2024-01-30T05:22:56;10.70;99.90
35240;DHT22;21376;50.954;4.716;2024-01-30T05:25:25;10.70;99.90
35240;DHT22;21376;50.954;4.716;2024-01-30T07:12:47;11.10;99.90
35240;DHT22;21376;50.954;4.716;2024-01-30T07:15:13;11.00;99.90
35240;DHT22;21376;50.954;4.716;2024-01-30T07:17:45;11.10;99.90
35240;DHT22;21376;50.954;4.716;2024-01-30T07:20:11;11.00;99.90
35240;DHT22;21376;50.954;4.716;2024-01-30T07:22:37;11.00;99.90
35240;DHT22;21376;50.954;4.716;2024-01-30T07:25:06;11.20;99.90
35240;DHT22;21376;50.954;4.716;2024-01-30T07:27:34;11.10;99.90
35240;DHT22;21376;50.954;4.716;2024-01-30T07:30:04;11.20;99.90
35240;DHT22;21376;50.954;4.716;2024-01-30T07:32:35;11.20;99.90
35240;DHT22;21376;50.954;4.716;2024-01-30T07:35:05;11.00;99.90
35240;DHT22;21376;50.954;4.716;2024-01-30T07:37:33;11.00;99.90
35240;DHT22;21376;50.954;4.716;2024-01-30T07:40:01;10.90;99.90
35240;DHT22;21376;50.954;4.716;2024-01-30T07:45:36;11.00;99.90
35240;DHT22;21376;50.954;4.716;2024-01-30T07:48:06;10.90;99.90
35240;DHT22;21376;50.954;4.716;2024-01-30T07:50:35;10.90;99.90
35240;DHT22;21376;50.954;4.716;2024-01-30T07:53:11;11.00;99.90
35240;DHT22;21376;50.954;4.716;2024-01-30T07:55:47;11.10;99.90
35240;DHT22;21376;50.954;4.716;2024-01-30T07:58:14;11.10;99.90
35240;DHT22;21376;50.954;4.716;2024-01-30T08:00:41;11.20;99.90
35240;DHT22;21376;50.954;4.716;2024-01-30T08:03:10;11.40;99.90
35240;DHT22;21376;50.954;4.716;2024-01-30T08:06:00;11.30;99.90
35240;DHT22;21376;50.954;4.716;2024-01-30T08:08:29;11.30;99.90
35240;DHT22;21376;50.954;4.716;2024-01-30T08:10:55;11.10;99.90
35240;DHT22;21376;50.954;4.716;2024-01-30T08:13:26;11.10;99.90
35240;DHT22;21376;50.954;4.716;2024-01-30T08:15:52;11.00;99.90
35240;DHT22;21376;50.954;4.716;2024-01-30T08:18:20;11.20;99.90
35240;DHT22;21376;50.954;4.716;2024-01-30T08:20:57;11.10;99.90
35240;DHT22;21376;50.954;4.716;2024-01-30T08:23:29;11.10;99.90
35240;DHT22;21376;50.954;4.716;2024-01-30T08:25:58;11.00;99.90
35240;DHT22;21376;50.954;4.716;2024-01-30T08:28:27;11.20;99.90
35240;DHT22;21376;50.954;4.716;2024-01-30T08:30:56;11.20;99.90
35240;DHT22;21376;50.954;4.716;2024-01-30T08:33:22;11.20;99.90
35240;DHT22;21376;50.954;4.716;2024-01-30T08:35:51;11.30;99.90
35240;DHT22;21376;50.954;4.716;2024-01-30T08:38:19;11.20;99.90
35240;DHT22;21376;50.954;4.716;2024-01-30T08:40:47;11.20;99.90
35240;DHT22;21376;50.954;4.716;2024-01-30T08:43:16;11.20;99.90
35240;DHT22;21376;50.954;4.716;2024-01-30T08:45:43;11.10;99.90
35240;DHT22;21376;50.954;4.716;2024-01-30T08:48:12;11.20;99.90
35240;DHT22;21376;50.954;4.716;2024-01-30T08:53:31;11.30;99.90
35240;DHT22;21376;50.954;4.716;2024-01-30T08:56:01;11.40;99.90
35240;DHT22;21376;50.954;4.716;2024-01-30T08:58:30;11.30;99.90
35240;DHT22;21376;50.954;4.716;2024-01-30T09:00:59;11.40;99.90
35240;DHT22;21376;50.954;4.716;2024-01-30T09:03:37;11.40;99.90
35240;DHT22;21376;50.954;4.716;2024-01-30T09:06:11;11.60;99.90
35240;DHT22;21376;50.954;4.716;2024-01-30T09:08:40;11.50;99.90
35240;DHT22;21376;50.954;4.716;2024-01-30T09:11:23;11.70;99.90
35240;DHT22;21376;50.954;4.716;2024-01-30T09:14:03;11.80;99.90
35240;DHT22;21376;50.954;4.716;2024-01-30T09:16:31;11.90;99.90
35240;DHT22;21376;50.954;4.716;2024-01-30T09:22:00;12.00;99.90
35240;DHT22;21376;50.954;4.716;2024-01-30T09:24:29;12.10;99.90
35240;DHT22;21376;50.954;4.716;2024-01-30T09:27:26;12.10;99.90
35240;DHT22;21376;50.954;4.716;2024-01-30T09:29:52;12.10;99.90
35240;DHT22;21376;50.954;4.716;2024-01-30T09:32:21;12.00;99.90
35240;DHT22;21376;50.954;4.716;2024-01-30T09:34:48;12.10;99.90
35240;DHT22;21376;50.954;4.716;2024-01-30T09:37:29;11.90;99.90
35240;DHT22;21376;50.954;4.716;2024-01-30T09:40:09;11.90;99.90
35240;DHT22;21376;50.954;4.716;2024-01-30T09:42:38;12.00;99.90
35240;DHT22;21376;50.954;4.716;2024-01-30T09:45:23;12.00;99.90
35240;DHT22;21376;50.954;4.716;2024-01-30T09:47:52;12.20;99.90
35240;DHT22;21376;50.954;4.716;2024-01-30T09:53:56;12.30;99.90
35240;DHT22;21376;50.954;4.716;2024-01-30T09:56:28;12.20;99.90
35240;DHT22;21376;50.954;4.716;2024-01-30T09:59:06;12.10;99.90
35240;DHT22;21376;50.954;4.716;2024-01-30T10:01:34;12.20;99.90
35240;DHT22;21376;50.954;4.716;2024-01-30T10:04:20;12.10;99.90
35240;DHT22;21376;50.954;4.716;2024-01-30T10:06:51;12.30;99.90
35240;DHT22;21376;50.954;4.716;2024-01-30T10:09:21;12.30;99.90
35240;DHT22;21376;50.954;4.716;2024-01-30T10:11:51;12.40;99.90
35240;DHT22;21376;50.954;4.716;2024-01-30T10:14:21;12.50;99.90
35240;DHT22;21376;50.954;4.716;2024-01-30T10:16:50;12.40;99.90
35240;DHT22;21376;50.954;4.716;2024-01-30T10:19:19;12.30;99.90
35240;DHT22;21376;50.954;4.716;2024-01-30T10:21:48;12.50;99.90
35240;DHT22;21376;50.954;4.716;2024-01-30T10:24:17;12.70;99.90
35240;DHT22;21376;50.954;4.716;2024-01-30T10:26:48;12.90;99.90
35240;DHT22;21376;50.954;4.716;2024-01-30T10:29:24;13.00;99.90
35240;DHT22;21376;50.954;4.716;2024-01-30T10:32:08;12.80;99.90
35240;DHT22;21376;50.954;4.716;2024-01-30T10:34:56;12.90;99.90
35240;DHT22;21376;50.954;4.716;2024-01-30T10:37:25;13.00;99.90
35240;DHT22;21376;50.954;4.716;2024-01-30T10:40:09;13.10;99.90
35240;DHT22;21376;50.954;4.716;2024-01-30T10:42:42;13.20;99.90
35240;DHT22;21376;50.954;4.716;2024-01-30T10:45:18;13.20;99.90
35240;DHT22;21376;50.954;4.716;2024-01-30T10:48:08;13.30;99.90
35240;DHT22;21376;50.954;4.716;2024-01-30T10:50:40;13.10;99.90
35240;DHT22;21376;50.954;4.716;2024-01-30T10:53:10;13.00;99.90
35240;DHT22;21376;50.954;4.716;2024-01-30T10:55:40;12.80;99.90
35240;DHT22;21376;50.954;4.716;2024-01-30T10:58:10;12.60;99.90
35240;DHT22;21376;50.954;4.716;2024-01-30T11:00:38;12.80;99.90
35240;DHT22;21376;50.954;4.716;2024-01-30T11:03:07;12.50;99.90
35240;DHT22;21376;50.954;4.716;2024-01-30T11:05:40;12.40;99.90
35240;DHT22;21376;50.954;4.716;2024-01-30T11:08:25;12.50;99.90
35240;DHT22;21376;50.954;4.716;2024-01-30T11:10:55;12.40;99.90
35240;DHT22;21376;50.954;4.716;2024-01-30T11:13:29;12.30;99.90
35240;DHT22;21376;50.954;4.716;2024-01-30T11:15:55;12.30;99.90
35240;DHT22;21376;50.954;4.716;2024-01-30T11:18:32;12.40;99.90
35240;DHT22;21376;50.954;4.716;2024-01-30T11:21:01;12.30;99.90
35240;DHT22;21376;50.954;4.716;2024-01-30T11:23:32;12.30;99.90
35240;DHT22;21376;50.954;4.716;2024-01-30T11:25:59;12.40;99.90
35240;DHT22;21376;50.954;4.716;2024-01-30T11:28:32;12.30;99.90
35240;DHT22;21376;50.954;4.716;2024-01-30T11:31:07;12.40;99.90
35240;DHT22;21376;50.954;4.716;2024-01-30T11:33:36;12.50;99.90
35240;DHT22;21376;50.954;4.716;2024-01-30T11:36:04;12.40;99.90
35240;DHT22;21376;50.954;4.716;2024-01-30T11:38:32;12.10;99.90
35240;DHT22;21376;50.954;4.716;2024-01-30T11:41:00;12.20;99.90
35240;DHT22;21376;50.954;4.716;2024-01-30T11:43:36;12.10;99.90
35240;DHT22;21376;50.954;4.716;2024-01-30T11:46:07;12.10;99.90
35240;DHT22;21376;50.954;4.716;2024-01-30T11:48:34;12.10;99.90
35240;DHT22;21376;50.954;4.716;2024-01-30T11:51:03;12.20;99.90
35240;DHT22;21376;50.954;4.716;2024-01-30T11:53:32;12.20;99.90
35240;DHT22;21376;50.954;4.716;2024-01-30T11:56:01;12.30;99.90
35240;DHT22;21376;50.954;4.716;2024-01-30T11:58:30;12.30;99.90
35240;DHT22;21376;50.954;4.716;2024-01-30T12:01:02;12.10;99.90
35240;DHT22;21376;50.954;4.716;2024-01-30T12:03:31;11.90;99.90
35240;DHT22;21376;50.954;4.716;2024-01-30T12:06:00;11.70;99.90
35240;DHT22;21376;50.954;4.716;2024-01-30T12:08:36;11.70;99.90
35240;DHT22;21376;50.954;4.716;2024-01-30T12:20:35;12.20;99.90
35240;DHT22;21376;50.954;4.716;2024-01-30T12:23:07;12.20;99.90
35240;DHT22;21376;50.954;4.716;2024-01-30T12:25:38;12.20;99.90
35240;DHT22;21376;50.954;4.716;2024-01-30T12:28:24;12.30;99.90
35240;DHT22;21376;50.954;4.716;2024-01-30T12:34:40;12.70;99.90
35240;DHT22;21376;50.954;4.716;2024-01-30T12:37:26;12.60;99.90
35240;DHT22;21376;50.954;4.716;2024-01-30T12:39:52;12.40;99.90
35240;DHT22;21376;50.954;4.716;2024-01-30T12:42:20;12.30;99.90
35240;DHT22;21376;50.954;4.716;2024-01-30T12:44:50;12.30;99.90
35240;DHT22;21376;50.954;4.716;2024-01-30T12:47:18;12.40;99.90
35240;DHT22;21376;50.954;4.716;2024-01-30T12:49:47;12.40;99.90
35240;DHT22;21376;50.954;4.716;2024-01-30T12:55:51;13.30;99.90
35240;DHT22;21376;50.954;4.716;2024-01-30T12:58:17;13.60;99.90
35240;DHT22;21376;50.954;4.716;2024-01-30T13:00:46;13.90;99.90
35240;DHT22;21376;50.954;4.716;2024-01-30T13:06:22;14.80;99.90
35240;DHT22;21376;50.954;4.716;2024-01-30T13:08:51;15.40;99.90
35240;DHT22;21376;50.954;4.716;2024-01-30T13:11:20;15.20;99.90
35240;DHT22;21376;50.954;4.716;2024-01-30T13:13:47;14.70;99.90
35240;DHT22;21376;50.954;4.716;2024-01-30T13:16:16;13.70;99.90
35240;DHT22;21376;50.954;4.716;2024-01-30T13:18:43;13.20;99.90
35240;DHT22;21376;50.954;4.716;2024-01-30T13:21:15;12.80;99.90
35240;DHT22;21376;50.954;4.716;2024-01-30T13:23:44;12.60;99.90
35240;DHT22;21376;50.954;4.716;2024-01-30T13:29:18;12.50;99.90
35240;DHT22;21376;50.954;4.716;2024-01-30T13:31:47;12.20;99.90
35240;DHT22;21376;50.954;4.716;2024-01-30T13:34:24;12.10;99.90
35240;DHT22;21376;50.954;4.716;2024-01-30T13:36:53;11.90;99.90
35240;DHT22;21376;50.954;4.716;2024-01-30T13:39:19;11.90;99.90
35240;DHT22;21376;50.954;4.716;2024-01-30T13:41:46;12.00;99.90
35240;DHT22;21376;50.954;4.716;2024-01-30T13:44:17;11.90;99.90
35240;DHT22;21376;50.954;4.716;2024-01-30T13:46:46;11.60;99.90
35240;DHT22;21376;50.954;4.716;2024-01-30T13:49:26;11.80;99.90
35240;DHT22;21376;50.954;4.716;2024-01-30T13:51:55;12.00;99.90
35240;DHT22;21376;50.954;4.716;2024-01-30T13:54:22;12.00;99.90
35240;DHT22;21376;50.954;4.716;2024-01-30T13:56:50;12.00;99.90
35240;DHT22;21376;50.954;4.716;2024-01-30T13:59:16;12.00;99.90
35240;DHT22;21376;50.954;4.716;2024-01-30T14:01:51;12.00;99.90
35240;DHT22;21376;50.954;4.716;2024-01-30T14:04:20;12.00;99.90
35240;DHT22;21376;50.954;4.716;2024-01-30T14:06:49;12.00;99.90
35240;DHT22;21376;50.954;4.716;2024-01-30T14:09:34;11.90;99.90
35240;DHT22;21376;50.954;4.716;2024-01-30T14:12:01;11.80;99.90
35240;DHT22;21376;50.954;4.716;2024-01-30T14:17:55;12.00;99.90
35240;DHT22;21376;50.954;4.716;2024-01-30T14:20:24;12.00;99.90
35240;DHT22;21376;50.954;4.716;2024-01-30T14:22:53;11.90;99.90
35240;DHT22;21376;50.954;4.716;2024-01-30T14:25:21;12.00;99.90
35240;DHT22;21376;50.954;4.716;2024-01-30T14:27:47;11.90;99.90
35240;DHT22;21376;50.954;4.716;2024-01-30T14:30:13;11.70;99.90
35240;DHT22;21376;50.954;4.716;2024-01-30T14:32:38;11.50;99.90
35240;DHT22;21376;50.954;4.716;2024-01-30T14:35:08;11.50;99.90
35240;DHT22;21376;50.954;4.716;2024-01-30T14:37:37;11.30;99.90
35240;DHT22;21376;50.954;4.716;2024-01-30T14:40:07;11.20;99.90
35240;DHT22;21376;50.954;4.716;2024-01-30T14:42:33;11.10;99.90
35240;DHT22;21376;50.954;4.716;2024-01-30T14:45:02;11.10;99.90
35240;DHT22;21376;50.954;4.716;2024-01-30T14:47:34;11.00;99.90
35240;DHT22;21376;50.954;4.716;2024-01-30T14:50:06;11.00;99.90
35240;DHT22;21376;50.954;4.716;2024-01-30T14:52:34;11.00;99.90
35240;DHT22;21376;50.954;4.716;2024-01-30T14:55:03;11.00;99.90
35240;DHT22;21376;50.954;4.716;2024-01-30T14:57:32;11.00;99.90
35240;DHT22;21376;50.954;4.716;2024-01-30T15:00:00;10.90;99.90
35240;DHT22;21376;50.954;4.716;2024-01-30T15:02:30;11.00;99.90
35240;DHT22;21376;50.954;4.716;2024-01-30T15:04:57;10.90;99.90
35240;DHT22;21376;50.954;4.716;2024-01-30T15:07:26;11.00;99.90
35240;DHT22;21376;50.954;4.716;2024-01-30T15:10:21;10.80;99.90
35240;DHT22;21376;50.954;4.716;2024-01-30T15:12:47;10.60;99.90
35240;DHT22;21376;50.954;4.716;2024-01-30T15:15:16;10.50;99.90
35240;DHT22;21376;50.954;4.716;2024-01-30T15:17:45;10.40;99.90
35240;DHT22;21376;50.954;4.716;2024-01-30T15:20:14;10.40;99.90
35240;DHT22;21376;50.954;4.716;2024-01-30T15:22:44;10.50;99.90
35240;DHT22;21376;50.954;4.716;2024-01-30T15:25:13;10.50;99.90
35240;DHT22;21376;50.954;4.716;2024-01-30T15:27:47;10.50;99.90
35240;DHT22;21376;50.954;4.716;2024-01-30T15:45:40;10.30;99.90
35240;DHT22;21376;50.954;4.716;2024-01-30T15:48:42;10.20;99.90
35240;DHT22;21376;50.954;4.716;2024-01-30T15:51:08;10.10;99.90
35240;DHT22;21376;50.954;4.716;2024-01-30T15:53:35;10.10;99.90
35240;DHT22;21376;50.954;4.716;2024-01-30T15:56:04;10.10;99.90
35240;DHT22;21376;50.954;4.716;2024-01-30T15:58:32;10.00;99.90
35240;DHT22;21376;50.954;4.716;2024-01-30T16:01:05;10.10;99.90
35240;DHT22;21376;50.954;4.716;2024-01-30T16:03:34;10.00;99.90
35240;DHT22;21376;50.954;4.716;2024-01-30T16:06:28;10.00;99.90
35240;DHT22;21376;50.954;4.716;2024-01-30T16:08:57;10.10;99.90
35240;DHT22;21376;50.954;4.716;2024-01-30T16:11:26;10.20;99.90
35240;DHT22;21376;50.954;4.716;2024-01-30T16:13:55;10.20;99.90
35240;DHT22;21376;50.954;4.716;2024-01-30T16:16:24;10.20;99.90
35240;DHT22;21376;50.954;4.716;2024-01-30T16:18:53;10.10;99.90
35240;DHT22;21376;50.954;4.716;2024-01-30T16:21:21;10.00;99.90
35240;DHT22;21376;50.954;4.716;2024-01-30T16:23:49;9.90;99.90
35240;DHT22;21376;50.954;4.716;2024-01-30T16:26:18;9.90;99.90
35240;DHT22;21376;50.954;4.716;2024-01-30T16:28:47;9.80;99.90
35240;DHT22;21376;50.954;4.716;2024-01-30T16:31:14;9.80;99.90
35240;DHT22;21376;50.954;4.716;2024-01-30T16:33:56;9.80;99.90
35240;DHT22;21376;50.954;4.716;2024-01-30T16:36:28;9.80;99.90
35240;DHT22;21376;50.954;4.716;2024-01-30T16:38:57;9.70;99.90
35240;DHT22;21376;50.954;4.716;2024-01-30T16:41:29;9.70;99.90
35240;DHT22;21376;50.954;4.716;2024-01-30T16:43:58;9.60;99.90
35240;DHT22;21376;50.954;4.716;2024-01-30T16:46:23;9.60;99.90
35240;DHT22;21376;50.954;4.716;2024-01-30T16:48:52;9.50;99.90
35240;DHT22;21376;50.954;4.716;2024-01-30T16:51:21;9.40;99.90
35240;DHT22;21376;50.954;4.716;2024-01-30T16:53:50;9.40;99.90
35240;DHT22;21376;50.954;4.716;2024-01-30T16:56:19;9.40;99.90
35240;DHT22;21376;50.954;4.716;2024-01-30T16:58:45;9.40;99.90
35240;DHT22;21376;50.954;4.716;2024-01-30T17:01:10;9.40;99.90
35240;DHT22;21376;50.954;4.716;2024-01-30T17:03:42;9.40;99.90
35240;DHT22;21376;50.954;4.716;2024-01-30T17:06:15;9.20;99.90
35240;DHT22;21376;50.954;4.716;2024-01-30T17:08:44;9.10;99.90
35240;DHT22;21376;50.954;4.716;2024-01-30T17:11:36;9.00;99.90
35240;DHT22;21376;50.954;4.716;2024-01-30T17:14:05;8.80;99.90
35240;DHT22;21376;50.954;4.716;2024-01-30T17:16:35;8.70;99.90
35240;DHT22;21376;50.954;4.716;2024-01-30T17:19:04;8.70;99.90
35240;DHT22;21376;50.954;4.716;2024-01-30T17:21:33;8.60;99.90
35240;DHT22;21376;50.954;4.716;2024-01-30T17:24:03;8.70;99.90
35240;DHT22;21376;50.954;4.716;2024-01-30T17:26:32;8.60;99.90
35240;DHT22;21376;50.954;4.716;2024-01-30T17:29:00;8.50;99.90
35240;DHT22;21376;50.954;4.716;2024-01-30T17:31:26;8.60;99.90
35240;DHT22;21376;50.954;4.716;2024-01-30T17:33:55;8.60;99.90
35240;DHT22;21376;50.954;4.716;2024-01-30T17:36:24;8.70;99.90
35240;DHT22;21376;50.954;4.716;2024-01-30T17:38:57;8.70;99.90
35240;DHT22;21376;50.954;4.716;2024-01-30T17:41:28;8.70;99.90
35240;DHT22;21376;50.954;4.716;2024-01-30T17:43:57;8.80;99.90
35240;DHT22;21376;50.954;4.716;2024-01-30T17:46:26;9.00;99.90
35240;DHT22;21376;50.954;4.716;2024-01-30T17:48:55;9.00;99.90
35240;DHT22;21376;50.954;4.716;2024-01-30T17:51:22;9.10;99.90
35240;DHT22;21376;50.954;4.716;2024-01-30T17:53:51;8.90;99.90
35240;DHT22;21376;50.954;4.716;2024-01-30T17:56:24;8.90;99.90
35240;DHT22;21376;50.954;4.716;2024-01-30T17:58:53;8.90;99.90
35240;DHT22;21376;50.954;4.716;2024-01-30T18:01:22;9.00;99.90
35240;DHT22;21376;50.954;4.716;2024-01-30T18:03:52;9.00;99.90
35240;DHT22;21376;50.954;4.716;2024-01-30T18:06:21;9.10;99.90
35240;DHT22;21376;50.954;4.716;2024-01-30T18:08:50;9.00;99.90
35240;DHT22;21376;50.954;4.716;2024-01-30T18:11:19;9.00;99.90
35240;DHT22;21376;50.954;4.716;2024-01-30T18:13:52;8.90;99.90
35240;DHT22;21376;50.954;4.716;2024-01-30T18:16:22;8.90;99.90
35240;DHT22;21376;50.954;4.716;2024-01-30T18:18:53;8.90;99.90
35240;DHT22;21376;50.954;4.716;2024-01-30T18:21:21;8.90;99.90
35240;DHT22;21376;50.954;4.716;2024-01-30T18:23:50;8.90;99.90
35240;DHT22;21376;50.954;4.716;2024-01-30T18:26:19;8.90;99.90
35240;DHT22;21376;50.954;4.716;2024-01-30T18:28:48;8.80;99.90
35240;DHT22;21376;50.954;4.716;2024-01-30T18:31:17;8.80;99.90
35240;DHT22;21376;50.954;4.716;2024-01-30T18:33:43;8.60;99.90
35240;DHT22;21376;50.954;4.716;2024-01-30T18:36:14;8.50;99.90
35240;DHT22;21376;50.954;4.716;2024-01-30T18:38:43;8.50;99.90
35240;DHT22;21376;50.954;4.716;2024-01-30T18:41:10;8.70;99.90
35240;DHT22;21376;50.954;4.716;2024-01-30T18:43:39;8.90;99.90
35240;DHT22;21376;50.954;4.716;2024-01-30T18:46:31;9.00;99.90
35240;DHT22;21376;50.954;4.716;2024-01-30T18:48:59;9.00;99.90
35240;DHT22;21376;50.954;4.716;2024-01-30T18:51:28;9.10;99.90
35240;DHT22;21376;50.954;4.716;2024-01-30T18:53:57;9.10;99.90
35240;DHT22;21376;50.954;4.716;2024-01-30T18:56:26;9.00;99.90
35240;DHT22;21376;50.954;4.716;2024-01-30T19:02:22;9.20;99.90
35240;DHT22;21376;50.954;4.716;2024-01-30T19:04:50;9.10;99.90